Time;durP1;ratioP1;P1;durP2;ratioP2;P2;SDS_P1;SDS_P2;PMS_P1;PMS_P2;Temp;Humidity;BMP_temperature;BMP_pressure;BME280_temperature;BME280_humidity;BME280_pressure;Samples;Min_cycle;Max_cycle;Signal;HPM_P1;HPM_P2
2022/11/21 00:00:56;;;;;;;13.80;9.03;;;6.00;99.90;;;;;;5038492;28;20349;-58
2022/11/21 00:03:23;;;;;;;18.23;10.20;;;6.00;99.90;;;;;;5038478;28;20252;-57
2022/11/21 00:05:50;;;;;;;15.97;9.13;;;6.10;99.90;;;;;;5038322;28;20238;-56
2022/11/21 00:08:19;;;;;;;15.23;9.47;;;6.00;99.90;;;;;;5036039;28;20203;-57
2022/11/21 00:10:47;;;;;;;17.07;10.30;;;6.00;99.90;;;;;;5035101;28;20691;-57
2022/11/21 00:13:18;;;;;;;18.50;9.80;;;6.00;99.90;;;;;;5036832;28;20310;-57
2022/11/21 00:15:45;;;;;;;18.80;10.97;;;6.00;99.90;;;;;;5038837;28;20214;-57
2022/11/21 00:18:12;;;;;;;20.03;11.53;;;6.00;99.90;;;;;;5036731;28;20214;-57
2022/11/21 00:20:40;;;;;;;26.73;13.07;;;5.90;99.90;;;;;;5037728;28;20199;-56
2022/11/21 00:23:07;;;;;;;29.80;13.23;;;5.90;99.90;;;;;;5036221;28;20205;-56
2022/11/21 00:25:34;;;;;;;22.67;14.03;;;5.80;99.90;;;;;;5021195;28;20201;-56
2022/11/21 00:28:01;;;;;;;24.40;14.53;;;5.90;99.90;;;;;;5032011;28;20231;-56
2022/11/21 00:30:28;;;;;;;22.33;14.23;;;5.80;99.90;;;;;;5038506;28;20213;-57
2022/11/21 00:32:57;;;;;;;25.10;14.27;;;5.70;99.90;;;;;;5038682;28;20331;-56
2022/11/21 00:35:24;;;;;;;26.67;15.10;;;5.60;99.90;;;;;;5037347;28;20197;-59
2022/11/21 00:37:51;;;;;;;21.00;12.50;;;5.60;99.90;;;;;;5019301;28;20236;-57
2022/11/21 00:40:18;;;;;;;20.53;13.83;;;5.40;99.90;;;;;;5036710;28;20201;-57
2022/11/21 00:42:45;;;;;;;22.93;12.53;;;5.40;99.90;;;;;;5036790;28;20215;-57
2022/11/21 00:45:11;;;;;;;19.87;12.80;;;5.30;99.90;;;;;;5037243;28;20853;-57
2022/11/21 00:47:38;;;;;;;23.23;13.83;;;5.40;99.90;;;;;;5037984;28;20213;-56
2022/11/21 00:50:05;;;;;;;20.57;13.43;;;5.40;99.90;;;;;;5038172;28;20210;-56
2022/11/21 00:52:32;;;;;;;22.03;14.00;;;5.30;99.90;;;;;;5033685;28;20212;-57
2022/11/21 00:54:59;;;;;;;21.67;12.17;;;5.30;99.90;;;;;;5035140;28;20288;-57
2022/11/21 00:57:26;;;;;;;23.77;13.07;;;5.30;99.90;;;;;;5034225;28;20197;-56
2022/11/21 00:59:53;;;;;;;26.73;13.90;;;5.30;99.90;;;;;;5034677;28;20220;-57
2022/11/21 01:02:19;;;;;;;24.63;13.97;;;5.40;99.90;;;;;;5033790;28;20663;-57
2022/11/21 01:04:46;;;;;;;29.73;14.43;;;5.30;99.90;;;;;;5031168;28;20231;-57
2022/11/21 01:07:13;;;;;;;25.27;14.03;;;5.50;99.90;;;;;;5058962;28;20199;-57
2022/11/21 01:09:40;;;;;;;24.27;13.33;;;5.50;99.90;;;;;;5062106;28;20200;-57
2022/11/21 01:12:07;;;;;;;21.17;13.00;;;5.60;99.90;;;;;;5060436;28;20221;-56
2022/11/21 01:14:34;;;;;;;22.47;11.97;;;5.60;99.90;;;;;;5056674;28;20207;-57
2022/11/21 01:17:01;;;;;;;23.43;13.57;;;5.60;99.90;;;;;;5052541;28;20256;-57
2022/11/21 01:19:28;;;;;;;24.67;14.37;;;5.50;99.90;;;;;;5057000;28;20203;-57
2022/11/21 01:21:55;;;;;;;23.90;13.30;;;5.50;99.90;;;;;;5059196;28;20334;-56
2022/11/21 01:24:22;;;;;;;21.50;13.00;;;5.40;99.90;;;;;;5058841;28;20205;-57
2022/11/21 01:26:49;;;;;;;22.20;13.43;;;5.40;99.90;;;;;;5060735;28;20200;-57
2022/11/21 01:29:16;;;;;;;23.63;13.47;;;5.40;99.90;;;;;;5059186;28;20208;-56
2022/11/21 01:31:43;;;;;;;26.13;14.23;;;5.50;99.90;;;;;;5055794;28;20248;-57
2022/11/21 01:34:10;;;;;;;24.17;13.13;;;5.40;99.90;;;;;;5062944;28;20199;-57
2022/11/21 01:36:37;;;;;;;22.30;13.90;;;5.20;99.90;;;;;;5056891;28;20206;-56
2022/11/21 01:39:05;;;;;;;22.37;14.07;;;5.20;99.90;;;;;;5060186;28;20199;-56
2022/11/21 01:41:41;;;;;;;23.80;14.17;;;5.30;99.90;;;;;;5056418;28;20210;-56
2022/11/21 01:44:18;;;;;;;26.73;14.80;;;5.30;99.90;;;;;;5060208;28;20557;-56
2022/11/21 01:46:46;;;;;;;24.87;13.77;;;5.30;99.90;;;;;;5058842;28;20248;-56
2022/11/21 01:49:16;;;;;;;24.40;13.90;;;5.20;99.90;;;;;;5053433;28;20566;-57
2022/11/21 01:51:54;;;;;;;27.87;14.57;;;5.20;99.90;;;;;;5056896;28;20707;-56
2022/11/21 01:54:39;;;;;;;22.17;13.90;;;5.30;99.90;;;;;;5058243;28;20257;-56
2022/11/21 01:57:23;;;;;;;24.53;13.73;;;5.40;99.90;;;;;;5060713;28;20296;-57
2022/11/21 02:00:12;;;;;;;22.37;12.63;;;5.30;99.90;;;;;;5061328;28;20812;-56
2022/11/21 02:02:46;;;;;;;25.43;14.97;;;5.30;99.90;;;;;;5057359;28;20215;-56
2022/11/21 02:05:20;;;;;;;25.67;15.00;;;5.40;99.90;;;;;;5047322;28;20564;-56
2022/11/21 02:07:48;;;;;;;27.67;15.03;;;5.50;99.90;;;;;;5039862;28;20207;-57
2022/11/21 02:10:15;;;;;;;23.17;14.10;;;5.40;99.90;;;;;;5041737;28;20251;-56
2022/11/21 02:12:54;;;;;;;24.40;12.87;;;5.40;99.90;;;;;;5040371;28;20280;-56
2022/11/21 02:15:24;;;;;;;31.87;14.83;;;5.40;99.90;;;;;;5036945;28;20199;-57
2022/11/21 02:17:50;;;;;;;23.33;13.83;;;5.50;99.90;;;;;;5038088;28;20287;-56
2022/11/21 02:20:21;;;;;;;26.13;15.10;;;5.40;99.90;;;;;;5038940;28;20308;-57
2022/11/21 02:22:53;;;;;;;25.70;14.30;;;5.40;99.90;;;;;;5034223;28;20342;-56
2022/11/21 02:25:31;;;;;;;23.83;13.23;;;5.40;99.90;;;;;;5036415;28;20207;-57
2022/11/21 02:28:01;;;;;;;23.27;13.50;;;5.50;99.90;;;;;;5035844;28;20203;-57
2022/11/21 02:30:30;;;;;;;28.97;14.73;;;5.40;99.90;;;;;;5037948;28;20278;-57
2022/11/21 02:32:58;;;;;;;27.30;14.80;;;5.40;99.90;;;;;;5040435;28;21075;-57
2022/11/21 02:35:25;;;;;;;25.97;14.30;;;5.40;99.90;;;;;;5035101;28;20210;-56
2022/11/21 02:38:22;;;;;;;26.50;14.37;;;5.40;99.90;;;;;;5037316;28;20291;-56
2022/11/21 02:41:05;;;;;;;25.80;14.23;;;5.30;99.90;;;;;;5033430;28;20575;-57
2022/11/21 02:44:03;;;;;;;28.20;14.73;;;5.30;99.90;;;;;;5038766;28;20656;-56
2022/11/21 02:46:33;;;;;;;27.23;14.00;;;5.20;99.90;;;;;;5035580;28;20644;-56
2022/11/21 02:49:06;;;;;;;30.40;14.33;;;5.30;99.90;;;;;;5037353;28;20205;-57
2022/11/21 02:51:33;;;;;;;27.97;14.87;;;5.40;99.90;;;;;;5034809;28;20228;-56
2022/11/21 02:54:00;;;;;;;25.07;13.67;;;5.30;99.90;;;;;;5035218;28;20311;-57
2022/11/21 02:56:26;;;;;;;28.10;13.73;;;5.30;99.90;;;;;;5037235;28;20203;-57
2022/11/21 02:58:54;;;;;;;24.93;13.67;;;5.30;99.90;;;;;;5034584;28;20204;-57
2022/11/21 03:01:20;;;;;;;31.43;14.47;;;5.20;99.90;;;;;;5032888;28;20282;-57
2022/11/21 03:03:47;;;;;;;29.30;15.37;;;5.20;99.90;;;;;;5037869;28;20940;-57
2022/11/21 03:06:14;;;;;;;29.23;13.33;;;5.20;99.90;;;;;;5035745;28;20539;-55
2022/11/21 03:08:41;;;;;;;28.73;15.20;;;5.20;99.90;;;;;;5017168;28;20523;-57
2022/11/21 03:11:08;;;;;;;28.73;14.73;;;5.20;99.90;;;;;;5036993;28;20221;-56
2022/11/21 03:13:34;;;;;;;35.57;15.40;;;5.20;99.90;;;;;;5034604;28;20307;-56
2022/11/21 03:16:01;;;;;;;34.93;15.00;;;5.10;99.90;;;;;;5036531;28;20189;-57
2022/11/21 03:18:28;;;;;;;31.37;14.13;;;5.10;99.90;;;;;;5016809;28;20207;-56
2022/11/21 03:20:56;;;;;;;29.07;13.97;;;5.00;99.90;;;;;;5037182;28;20649;-57
2022/11/21 03:23:23;;;;;;;27.90;13.77;;;5.00;99.90;;;;;;5036436;28;20547;-57
2022/11/21 03:25:50;;;;;;;30.97;15.00;;;5.00;99.90;;;;;;5034509;28;20200;-55
2022/11/21 03:28:17;;;;;;;34.70;14.80;;;5.00;99.90;;;;;;5033768;28;20296;-56
2022/11/21 03:30:43;;;;;;;27.40;14.67;;;5.00;99.90;;;;;;5036106;28;20208;-57
2022/11/21 03:33:10;;;;;;;28.27;14.47;;;5.00;99.90;;;;;;5045563;28;20224;-57
2022/11/21 03:35:37;;;;;;;33.43;15.27;;;5.10;99.90;;;;;;5035886;28;20207;-56
2022/11/21 03:38:04;;;;;;;31.50;14.20;;;5.10;99.90;;;;;;5029537;28;20200;-56
2022/11/21 03:40:30;;;;;;;25.77;14.27;;;5.10;99.90;;;;;;5037245;28;20192;-57
2022/11/21 03:43:03;;;;;;;27.80;14.43;;;5.10;99.90;;;;;;5033227;28;20214;-57
2022/11/21 03:45:30;;;;;;;30.47;14.93;;;5.00;99.90;;;;;;5037691;28;20247;-57
2022/11/21 03:47:57;;;;;;;35.03;16.03;;;5.10;99.90;;;;;;5045875;28;20545;-56
2022/11/21 03:50:24;;;;;;;26.70;14.03;;;5.00;99.90;;;;;;5035742;28;20322;-57
2022/11/21 03:52:50;;;;;;;26.00;14.10;;;5.00;99.90;;;;;;5034409;28;20224;-57
2022/11/21 03:55:17;;;;;;;32.17;14.67;;;4.90;99.90;;;;;;5033571;28;20204;-56
2022/11/21 03:57:44;;;;;;;27.90;15.50;;;5.00;99.90;;;;;;5034054;28;20320;-56
2022/11/21 04:00:12;;;;;;;27.37;15.17;;;5.10;99.90;;;;;;5033988;28;20291;-56
2022/11/21 04:02:38;;;;;;;26.70;14.27;;;5.10;99.90;;;;;;5035834;28;20201;-56
2022/11/21 04:05:05;;;;;;;29.37;14.93;;;5.00;99.90;;;;;;5038601;28;20661;-57
2022/11/21 04:07:32;;;;;;;26.90;15.77;;;5.10;99.90;;;;;;5033380;28;20602;-55
2022/11/21 04:09:59;;;;;;;29.80;15.80;;;5.10;99.90;;;;;;5035198;28;20231;-57
2022/11/21 04:12:26;;;;;;;33.87;16.20;;;5.20;99.90;;;;;;5035973;28;20677;-56
2022/11/21 04:14:52;;;;;;;29.47;15.00;;;5.20;99.90;;;;;;5030135;28;20198;-57
2022/11/21 04:17:19;;;;;;;34.83;16.63;;;5.20;99.90;;;;;;5036298;28;20661;-57
2022/11/21 04:19:46;;;;;;;32.07;14.90;;;5.20;99.90;;;;;;5035480;28;20218;-56
2022/11/21 04:22:13;;;;;;;32.23;14.40;;;5.10;99.90;;;;;;5037061;28;20193;-56
2022/11/21 04:24:39;;;;;;;36.87;15.43;;;5.10;99.90;;;;;;5036046;28;20196;-57
2022/11/21 04:27:06;;;;;;;32.87;14.90;;;5.00;99.90;;;;;;5035775;28;20215;-56
2022/11/21 04:29:33;;;;;;;28.53;14.57;;;5.00;99.90;;;;;;5018178;28;20265;-56
2022/11/21 04:32:00;;;;;;;36.07;14.60;;;5.00;99.90;;;;;;5036521;28;20252;-56
2022/11/21 04:34:27;;;;;;;29.30;15.37;;;5.00;99.90;;;;;;5036500;28;20219;-57
2022/11/21 04:36:54;;;;;;;31.67;14.53;;;5.00;99.90;;;;;;5034897;28;20210;-56
2022/11/21 04:39:21;;;;;;;27.27;14.07;;;5.00;99.90;;;;;;5034812;28;20660;-56
2022/11/21 04:41:47;;;;;;;37.80;15.30;;;5.00;99.90;;;;;;5040109;28;20208;-57
2022/11/21 04:44:14;;;;;;;29.83;14.37;;;5.00;99.90;;;;;;5041800;28;20212;-56
2022/11/21 04:46:41;;;;;;;24.93;13.30;;;5.00;99.90;;;;;;5023588;28;20238;-56
2022/11/21 04:49:08;;;;;;;24.63;13.10;;;5.00;99.90;;;;;;5040743;28;20200;-56
2022/11/21 04:51:34;;;;;;;26.37;12.97;;;4.90;99.90;;;;;;5041281;28;20242;-56
2022/11/21 04:54:01;;;;;;;22.17;13.33;;;4.90;99.90;;;;;;5039543;28;20214;-56
2022/11/21 04:56:28;;;;;;;24.87;12.90;;;4.90;99.90;;;;;;5042090;28;20657;-56
2022/11/21 04:58:55;;;;;;;30.57;12.37;;;5.00;99.90;;;;;;5041291;28;20200;-59
2022/11/21 05:01:21;;;;;;;37.53;13.73;;;4.90;99.90;;;;;;5036402;28;20249;-57
2022/11/21 05:03:48;;;;;;;29.07;13.50;;;4.80;99.90;;;;;;5040637;28;20296;-56
2022/11/21 05:06:15;;;;;;;33.30;13.73;;;4.80;99.90;;;;;;5036403;28;20606;-56
2022/11/21 05:08:42;;;;;;;27.43;13.53;;;4.80;99.90;;;;;;5039730;28;20215;-56
2022/11/21 05:13:59;;;;;;;30.13;14.00;;;4.80;99.90;;;;;;5039356;28;20223;-56
2022/11/21 05:16:26;;;;;;;35.93;13.50;;;4.80;99.90;;;;;;5051171;28;20201;-56
2022/11/21 05:18:53;;;;;;;29.90;13.47;;;4.80;99.90;;;;;;5038313;28;20200;-55
2022/11/21 05:21:20;;;;;;;22.33;12.53;;;4.80;99.90;;;;;;5041386;28;20333;-56
2022/11/21 05:23:46;;;;;;;30.80;14.17;;;4.70;99.90;;;;;;5039157;28;20317;-56
2022/11/21 05:26:13;;;;;;;37.63;13.97;;;4.70;99.90;;;;;;5041572;28;20204;-56
2022/11/21 05:28:40;;;;;;;28.10;12.73;;;4.50;99.90;;;;;;5035891;28;20296;-56
2022/11/21 05:31:07;;;;;;;30.07;12.83;;;4.50;99.90;;;;;;5040584;28;20287;-56
2022/11/21 05:33:33;;;;;;;29.07;13.17;;;4.70;99.90;;;;;;5042137;28;20233;-57
2022/11/21 05:36:00;;;;;;;26.50;13.10;;;4.80;99.90;;;;;;5041404;28;20196;-57
2022/11/21 05:38:27;;;;;;;27.10;12.43;;;4.80;99.90;;;;;;5037299;28;20215;-56
2022/11/21 05:40:54;;;;;;;19.03;11.27;;;4.70;99.90;;;;;;5039532;28;20672;-56
2022/11/21 05:46:06;;;;;;;22.47;11.97;;;4.70;99.90;;;;;;5040587;28;20591;-56
2022/11/21 05:48:35;;;;;;;31.53;11.93;;;4.70;99.90;;;;;;5039667;28;20423;-56
2022/11/21 05:51:03;;;;;;;24.47;12.27;;;4.70;99.90;;;;;;5040646;28;20303;-57
2022/11/21 05:53:30;;;;;;;21.70;11.67;;;4.70;99.90;;;;;;5036714;28;20240;-56
2022/11/21 05:56:02;;;;;;;25.27;11.93;;;4.70;99.90;;;;;;5040171;28;21060;-57
2022/11/21 05:58:29;;;;;;;22.27;11.20;;;4.70;99.90;;;;;;5052469;28;20218;-57
2022/11/21 06:00:57;;;;;;;31.47;12.53;;;4.70;99.90;;;;;;5038316;28;20196;-56
2022/11/21 06:03:31;;;;;;;25.23;12.10;;;4.70;99.90;;;;;;5036612;28;20634;-56
2022/11/21 06:06:15;;;;;;;25.33;12.47;;;4.70;99.90;;;;;;5035895;28;20601;-56
2022/11/21 06:08:47;;;;;;;21.47;12.47;;;4.70;99.90;;;;;;5037744;28;20251;-56
2022/11/21 06:11:15;;;;;;;21.10;12.80;;;4.70;99.90;;;;;;5040214;28;20224;-57
2022/11/21 06:13:43;;;;;;;29.00;13.20;;;4.70;99.90;;;;;;5039139;28;20226;-56
2022/11/21 06:16:12;;;;;;;26.73;13.10;;;4.70;99.90;;;;;;5040072;28;20210;-56
2022/11/21 06:18:44;;;;;;;27.63;13.83;;;4.70;99.90;;;;;;5038865;28;20281;-57
2022/11/21 06:21:15;;;;;;;26.60;12.23;;;4.80;99.90;;;;;;5040717;28;20200;-56
2022/11/21 06:23:42;;;;;;;38.30;13.37;;;4.80;99.90;;;;;;5039026;28;20209;-56
2022/11/21 06:26:17;;;;;;;27.93;11.63;;;4.90;99.90;;;;;;5041557;28;20214;-56
2022/11/21 06:28:44;;;;;;;22.53;12.13;;;4.80;99.90;;;;;;5039214;28;20749;-57
2022/11/21 06:31:17;;;;;;;28.50;12.83;;;4.90;99.90;;;;;;5040426;28;20303;-63
2022/11/21 06:33:45;;;;;;;21.57;12.40;;;4.90;99.90;;;;;;5038236;28;20233;-64
2022/11/21 06:36:14;;;;;;;19.77;11.67;;;4.90;99.90;;;;;;5039286;28;20202;-58
2022/11/21 06:38:42;;;;;;;23.63;12.67;;;5.00;99.90;;;;;;5035290;28;20326;-59
2022/11/21 06:41:23;;;;;;;19.20;12.00;;;4.90;99.90;;;;;;5039087;28;20198;-57
2022/11/21 06:43:50;;;;;;;19.37;12.03;;;4.90;99.90;;;;;;5022771;28;20261;-57
2022/11/21 06:46:17;;;;;;;21.37;10.77;;;5.00;99.90;;;;;;5033839;28;20210;-56
2022/11/21 06:48:44;;;;;;;22.73;12.37;;;5.00;99.90;;;;;;4678597;28;10000069;-56
2022/11/21 06:51:14;;;;;;;20.10;11.40;;;5.00;99.90;;;;;;5038081;28;20207;-57
2022/11/21 06:53:41;;;;;;;21.00;11.40;;;5.00;99.90;;;;;;5040494;28;20224;-57
2022/11/21 06:56:07;;;;;;;22.33;12.17;;;5.10;99.90;;;;;;5037899;28;20211;-57
2022/11/21 06:58:34;;;;;;;20.47;12.17;;;5.10;99.90;;;;;;5033157;28;20294;-55
2022/11/21 07:01:04;;;;;;;21.03;12.23;;;5.10;99.90;;;;;;5029912;28;20213;-56
2022/11/21 07:03:31;;;;;;;25.67;12.43;;;5.20;99.90;;;;;;5029080;28;20309;-57
2022/11/21 07:06:00;;;;;;;27.47;13.10;;;5.20;99.90;;;;;;5037273;28;20248;-56
2022/11/21 07:08:28;;;;;;;25.87;13.40;;;5.10;99.90;;;;;;5026568;28;20228;-56
2022/11/21 07:11:00;;;;;;;27.83;14.10;;;5.10;99.90;;;;;;5026663;28;20899;-56
2022/11/21 07:13:47;;;;;;;21.87;12.37;;;5.20;99.90;;;;;;5028463;28;20259;-56
2022/11/21 07:16:14;;;;;;;25.03;12.43;;;5.30;99.90;;;;;;5030326;28;20207;-60
2022/11/21 07:18:41;;;;;;;29.10;13.27;;;5.40;99.90;;;;;;5021857;28;20211;-57
2022/11/21 07:21:09;;;;;;;27.80;13.17;;;5.50;99.90;;;;;;5026714;28;20317;-56
2022/11/21 07:23:36;;;;;;;21.87;12.90;;;5.50;99.90;;;;;;5033773;28;20204;-57
2022/11/21 07:26:05;;;;;;;21.63;12.93;;;5.50;99.90;;;;;;5050028;28;20288;-57
2022/11/21 07:28:33;;;;;;;21.90;12.90;;;5.40;99.90;;;;;;5031917;28;20204;-57
2022/11/21 07:31:02;;;;;;;27.50;14.80;;;5.50;99.90;;;;;;5029947;28;20211;-56
2022/11/21 07:33:38;;;;;;;20.50;11.90;;;5.40;99.90;;;;;;5028898;28;20209;-57
2022/11/21 07:36:06;;;;;;;27.50;13.40;;;5.30;99.90;;;;;;5021184;28;20255;-56
2022/11/21 07:38:32;;;;;;;22.53;12.63;;;5.20;99.90;;;;;;5024734;28;20670;-55
2022/11/21 07:40:59;;;;;;;25.33;13.27;;;5.30;99.90;;;;;;5027418;28;20625;-55
2022/11/21 07:43:26;;;;;;;23.27;13.43;;;5.40;99.90;;;;;;5025489;28;20220;-64
2022/11/21 07:45:53;;;;;;;20.97;12.03;;;5.50;99.90;;;;;;5026964;28;20630;-67
2022/11/21 07:48:20;;;;;;;19.23;12.30;;;5.60;99.90;;;;;;5028313;28;20300;-67
2022/11/21 07:50:46;;;;;;;17.13;11.17;;;5.50;99.90;;;;;;5015958;28;20218;-65
2022/11/21 07:53:13;;;;;;;21.80;11.57;;;5.60;99.90;;;;;;5028377;28;20211;-65
2022/11/21 07:55:40;;;;;;;18.57;11.63;;;5.70;99.90;;;;;;5029243;28;20921;-65
2022/11/21 07:58:09;;;;;;;19.00;10.97;;;5.70;99.90;;;;;;5043857;28;20202;-56
2022/11/21 08:00:39;;;;;;;18.77;12.00;;;5.60;99.90;;;;;;5028249;28;20908;-57
2022/11/21 08:03:06;;;;;;;19.33;11.43;;;5.70;99.90;;;;;;5027459;28;20959;-57
2022/11/21 08:05:37;;;;;;;21.57;10.73;;;5.70;99.90;;;;;;5030837;28;20289;-56
2022/11/21 08:08:05;;;;;;;15.07;10.07;;;5.80;99.90;;;;;;5029714;28;20679;-57
2022/11/21 08:10:32;;;;;;;18.67;10.53;;;5.80;99.90;;;;;;5046033;28;20323;-56
2022/11/21 08:12:59;;;;;;;19.73;11.40;;;5.80;99.90;;;;;;5030982;28;20249;-56
2022/11/21 08:15:26;;;;;;;17.63;10.33;;;5.90;99.90;;;;;;5035105;28;20219;-56
2022/11/21 08:17:52;;;;;;;17.63;10.70;;;6.00;99.90;;;;;;5013962;28;20207;-56
2022/11/21 08:20:19;;;;;;;16.87;10.47;;;6.00;99.90;;;;;;5014510;28;20194;-56
2022/11/21 08:22:46;;;;;;;16.93;10.33;;;6.00;99.90;;;;;;5034666;28;20267;-57
2022/11/21 08:25:13;;;;;;;15.80;10.53;;;6.10;99.90;;;;;;5032094;28;20201;-57
2022/11/21 08:27:41;;;;;;;19.03;10.83;;;6.20;99.90;;;;;;5033933;28;20601;-57
2022/11/21 08:30:10;;;;;;;19.90;11.23;;;6.40;99.90;;;;;;5033576;28;20207;-56
2022/11/21 08:32:36;;;;;;;14.50;9.80;;;6.40;99.90;;;;;;5034011;28;20698;-57
2022/11/21 08:35:04;;;;;;;17.73;8.93;;;6.50;99.90;;;;;;5014335;28;20223;-56
2022/11/21 08:37:30;;;;;;;14.33;9.20;;;6.40;99.90;;;;;;5035023;28;20209;-57
2022/11/21 08:39:57;;;;;;;12.20;8.50;;;6.50;99.90;;;;;;5034359;28;20679;-57
2022/11/21 08:42:24;;;;;;;11.03;8.57;;;6.70;99.90;;;;;;5015646;28;20253;-57
2022/11/21 08:44:51;;;;;;;13.50;7.97;;;6.80;99.90;;;;;;5028364;28;20299;-56
2022/11/21 08:47:19;;;;;;;17.37;8.07;;;6.80;99.90;;;;;;5035623;28;20226;-65
2022/11/21 08:49:46;;;;;;;11.90;8.27;;;6.70;99.90;;;;;;5031422;28;20211;-56
2022/11/21 08:52:16;;;;;;;16.47;7.40;;;6.80;99.90;;;;;;5030911;28;20261;-57
2022/11/21 08:54:43;;;;;;;13.50;7.40;;;7.00;99.90;;;;;;5032904;28;20220;-56
2022/11/21 08:57:11;;;;;;;12.70;7.10;;;6.80;99.90;;;;;;5034369;28;20201;-55
2022/11/21 08:59:38;;;;;;;12.47;6.60;;;6.70;99.90;;;;;;5034046;28;20210;-55
2022/11/21 09:02:05;;;;;;;10.17;6.50;;;6.50;99.90;;;;;;5031993;28;20205;-55
2022/11/21 09:04:32;;;;;;;12.20;6.60;;;6.60;99.90;;;;;;5030668;28;20247;-56
2022/11/21 09:07:00;;;;;;;9.63;6.80;;;6.80;99.90;;;;;;5036773;28;20266;-55
2022/11/21 09:09:27;;;;;;;12.03;6.77;;;6.70;99.90;;;;;;5035997;28;20248;-57
2022/11/21 09:11:54;;;;;;;10.77;6.33;;;6.90;99.90;;;;;;5047865;28;20228;-57
2022/11/21 09:19:57;;;;;;;8.07;5.40;;;7.20;99.90;;;;;;5030399;28;20429;-56
2022/11/21 09:22:27;;;;;;;7.13;5.80;;;7.10;99.90;;;;;;5031236;28;20200;-57
2022/11/21 09:24:54;;;;;;;8.37;5.37;;;7.10;99.90;;;;;;5033116;28;20211;-57
2022/11/21 09:27:20;;;;;;;10.80;6.00;;;7.10;99.90;;;;;;5045891;28;20243;-57
2022/11/21 09:29:47;;;;;;;11.00;5.80;;;7.50;99.90;;;;;;5030878;28;20690;-57
2022/11/21 09:32:19;;;;;;;10.70;4.80;;;7.70;99.90;;;;;;5032721;28;20226;-57
2022/11/21 09:34:46;;;;;;;8.43;4.83;;;7.20;99.90;;;;;;5030073;28;20940;-57
2022/11/21 09:37:13;;;;;;;9.33;4.80;;;7.40;99.90;;;;;;5032211;28;20192;-57
2022/11/21 09:39:40;;;;;;;10.00;5.30;;;7.40;99.90;;;;;;5017885;28;20285;-58
2022/11/21 09:42:15;;;;;;;12.40;4.53;;;7.40;99.90;;;;;;5032372;28;20200;-56
2022/11/21 09:45:06;;;;;;;7.00;4.40;;;7.60;99.90;;;;;;5033633;28;20715;-56
2022/11/21 09:47:41;;;;;;;7.10;4.00;;;7.40;99.90;;;;;;5030735;28;20233;-57
2022/11/21 09:50:14;;;;;;;7.17;3.70;;;7.50;99.90;;;;;;5032679;28;20219;-57
2022/11/21 09:53:05;;;;;;;4.87;3.77;;;7.70;99.90;;;;;;5030417;28;20682;-58
2022/11/21 09:55:34;;;;;;;6.33;3.60;;;7.90;99.90;;;;;;5032725;28;20215;-57
2022/11/21 09:58:05;;;;;;;8.10;4.07;;;7.70;99.90;;;;;;5031455;28;20204;-59
2022/11/21 10:00:32;;;;;;;7.67;3.70;;;7.90;99.90;;;;;;5032163;28;20196;-56
2022/11/21 10:02:59;;;;;;;10.00;4.90;;;8.10;99.90;;;;;;5031775;28;20242;-56
2022/11/21 10:05:45;;;;;;;5.80;3.30;;;8.40;99.90;;;;;;5028153;28;20231;-55
2022/11/21 10:08:17;;;;;;;7.37;3.27;;;8.30;99.90;;;;;;5027216;28;20242;-55
2022/11/21 10:11:07;;;;;;;5.07;3.33;;;8.40;99.90;;;;;;5029187;28;20229;-56
2022/11/21 10:14:11;;;;;;;6.27;2.73;;;8.30;99.90;;;;;;5029651;28;20207;-57
2022/11/21 10:16:41;;;;;;;4.50;2.90;;;8.50;99.90;;;;;;5027597;28;21950;-57
2022/11/21 10:19:13;;;;;;;8.40;3.00;;;8.30;99.90;;;;;;5024860;28;20598;-57
2022/11/21 10:22:06;;;;;;;7.50;2.90;;;8.50;99.90;;;;;;5030609;28;21306;-57
2022/11/21 10:24:33;;;;;;;4.47;3.20;;;8.70;99.90;;;;;;5029626;28;20302;-57
2022/11/21 10:27:10;;;;;;;8.90;3.03;;;8.60;99.90;;;;;;5026627;28;20287;-58
2022/11/21 10:29:47;;;;;;;5.17;2.50;;;8.40;99.90;;;;;;5027071;28;20213;-55
2022/11/21 10:32:29;;;;;;;6.53;3.07;;;8.20;99.90;;;;;;5030206;28;20291;-56
2022/11/21 10:35:00;;;;;;;6.20;2.93;;;8.30;99.90;;;;;;5028539;28;20233;-57
2022/11/21 10:37:36;;;;;;;5.90;2.80;;;8.10;99.90;;;;;;5028555;28;20631;-56
2022/11/21 10:40:35;;;;;;;6.00;2.77;;;8.10;99.90;;;;;;5027515;28;20199;-57
2022/11/21 10:45:54;;;;;;;7.00;2.40;;;8.00;99.90;;;;;;5025680;28;20750;-57
2022/11/21 10:48:21;;;;;;;5.27;2.70;;;8.10;99.90;;;;;;5025936;28;20299;-56
2022/11/21 10:51:12;;;;;;;4.60;2.83;;;8.20;99.90;;;;;;5031767;28;20202;-57
2022/11/21 10:56:34;;;;;;;3.27;2.20;;;8.00;99.90;;;;;;5031433;28;20199;-56
2022/11/21 10:59:17;;;;;;;4.83;2.53;;;7.90;99.90;;;;;;5029405;28;20202;-57
2022/11/21 11:02:00;;;;;;;5.83;2.57;;;8.00;99.90;;;;;;5011375;28;20204;-56
2022/11/21 11:04:29;;;;;;;6.20;2.30;;;7.90;99.90;;;;;;5031341;28;20294;-57
2022/11/21 11:07:22;;;;;;;4.77;2.67;;;7.90;99.90;;;;;;5031366;28;20241;-56
2022/11/21 11:09:51;;;;;;;4.97;2.70;;;8.20;99.90;;;;;;5024596;28;20757;-57
2022/11/21 11:15:25;;;;;;;8.03;3.33;;;8.40;99.90;;;;;;5025007;28;20242;-54
2022/11/21 11:17:56;;;;;;;8.73;2.73;;;8.50;99.90;;;;;;5013530;28;20203;-54
2022/11/21 11:20:34;;;;;;;5.37;2.47;;;8.50;99.90;;;;;;5012060;28;20219;-55
2022/11/21 11:23:24;;;;;;;5.83;2.70;;;8.90;99.90;;;;;;5028763;28;20653;-57
2022/11/21 11:25:54;;;;;;;7.13;2.70;;;9.00;99.90;;;;;;5031417;28;20220;-57
2022/11/21 11:28:26;;;;;;;4.90;2.40;;;9.20;99.90;;;;;;5029270;28;20237;-55
2022/11/21 11:30:54;;;;;;;4.40;2.37;;;9.30;99.90;;;;;;5027956;28;20596;-56
2022/11/21 11:33:37;;;;;;;4.53;2.60;;;9.70;99.90;;;;;;5030862;28;20206;-56
2022/11/21 11:36:32;;;;;;;2.57;2.13;;;9.80;99.90;;;;;;5032439;28;20642;-57
2022/11/21 11:39:01;;;;;;;8.70;2.63;;;10.00;99.90;;;;;;5049864;28;20318;-57
2022/11/21 11:47:53;;;;;;;3.10;1.83;;;10.10;99.90;;;;;;5033331;28;20207;-54
2022/11/21 11:50:38;;;;;;;5.03;2.77;;;10.30;99.90;;;;;;5024635;28;20215;-56
2022/11/21 11:53:19;;;;;;;4.57;1.97;;;10.10;99.90;;;;;;5033506;28;20655;-56
2022/11/21 11:55:59;;;;;;;4.33;2.00;;;10.00;99.90;;;;;;5033583;28;20309;-56
2022/11/21 11:58:35;;;;;;;4.10;1.70;;;10.10;99.90;;;;;;5031458;28;20222;-56
2022/11/21 12:01:09;;;;;;;2.60;1.60;;;9.60;99.90;;;;;;5026756;28;20214;-56
2022/11/21 12:03:53;;;;;;;5.57;2.23;;;9.90;99.90;;;;;;5012573;28;20231;-56
2022/11/21 12:06:28;;;;;;;4.00;1.87;;;10.00;99.90;;;;;;5031604;28;20228;-58
2022/11/21 12:09:36;;;;;;;3.10;1.90;;;10.00;99.90;;;;;;5027067;28;20219;-57
2022/11/21 12:12:06;;;;;;;3.60;1.83;;;9.80;99.90;;;;;;5027788;28;20247;-56
2022/11/21 12:18:08;;;;;;;6.97;2.47;;;9.60;99.90;;;;;;5027461;28;20535;-57
2022/11/21 12:20:53;;;;;;;3.93;2.40;;;9.60;99.90;;;;;;5024310;28;20630;-57
2022/11/21 12:23:22;;;;;;;4.43;1.80;;;9.40;99.90;;;;;;5029412;28;20569;-56
2022/11/21 12:25:49;;;;;;;6.10;1.80;;;9.30;99.90;;;;;;5027159;28;20204;-57
2022/11/21 12:28:30;;;;;;;6.17;1.67;;;9.40;99.90;;;;;;5029731;28;20745;-56
2022/11/21 12:31:05;;;;;;;5.93;2.97;;;9.50;99.90;;;;;;5028826;28;20207;-56
2022/11/21 12:33:40;;;;;;;5.10;1.80;;;9.60;99.90;;;;;;5028275;28;20209;-56
2022/11/21 12:36:23;;;;;;;4.70;2.30;;;9.50;99.90;;;;;;5026179;28;20350;-56
2022/11/21 12:39:07;;;;;;;3.43;1.70;;;9.30;99.90;;;;;;5027659;28;20789;-56
2022/11/21 12:44:52;;;;;;;6.60;1.60;;;9.50;99.90;;;;;;5028474;28;20207;-57
2022/11/21 12:47:29;;;;;;;5.93;1.77;;;9.50;99.90;;;;;;5028192;28;20230;-57
2022/11/21 12:56:42;;;;;;;4.93;2.10;;;9.50;99.90;;;;;;5029540;28;20221;-56
2022/11/21 12:59:12;;;;;;;4.10;1.90;;;9.40;99.90;;;;;;5025428;28;20204;-57
2022/11/21 13:02:05;;;;;;;3.83;1.60;;;9.30;99.90;;;;;;5027552;28;20211;-56
2022/11/21 13:04:37;;;;;;;4.17;1.63;;;9.10;99.90;;;;;;5031193;28;20211;-57
2022/11/21 13:07:05;;;;;;;6.27;1.73;;;9.20;99.90;;;;;;5028909;28;20284;-56
2022/11/21 13:09:47;;;;;;;6.00;1.87;;;9.30;99.90;;;;;;5033558;28;20622;-57
2022/11/21 13:12:32;;;;;;;5.50;1.70;;;9.20;99.90;;;;;;5030998;28;20209;-57
2022/11/21 13:15:08;;;;;;;6.53;2.07;;;9.20;99.90;;;;;;5030733;28;20245;-54
2022/11/21 13:17:49;;;;;;;8.93;2.00;;;9.20;99.90;;;;;;5031445;28;20216;-57
2022/11/21 13:20:26;;;;;;;11.93;2.53;;;9.30;99.90;;;;;;5032443;28;20304;-56
2022/11/21 13:22:58;;;;;;;4.50;1.70;;;9.20;99.90;;;;;;5031033;28;20207;-56
2022/11/21 13:25:31;;;;;;;8.27;2.00;;;9.30;99.90;;;;;;5033616;28;20864;-56
2022/11/21 13:28:10;;;;;;;2.97;1.57;;;9.30;99.90;;;;;;5030321;28;20869;-56
2022/11/21 13:30:50;;;;;;;6.37;1.97;;;9.10;99.90;;;;;;5030638;28;20203;-57
2022/11/21 13:33:38;;;;;;;3.87;1.87;;;9.10;99.90;;;;;;5028968;28;20250;-60
2022/11/21 13:36:09;;;;;;;8.57;1.70;;;9.10;99.90;;;;;;5031234;28;20302;-56
2022/11/21 13:38:56;;;;;;;7.80;2.00;;;9.10;99.90;;;;;;5031162;28;20289;-67
2022/11/21 13:44:32;;;;;;;6.67;2.33;;;8.90;99.90;;;;;;5031725;28;20267;-65